sensor_id;sensor_type;location;lat;lon;timestamp;temperature;humidity
22069;DHT22;13887;57.196;-2.100;2023-07-13T00:00:43;16.02;79.21
22069;DHT22;13887;57.196;-2.100;2023-07-13T00:03:19;15.99;79.27
22069;DHT22;13887;57.196;-2.100;2023-07-13T00:06:00;16.00;79.24
22069;DHT22;13887;57.196;-2.100;2023-07-13T00:08:30;16.00;79.24
22069;DHT22;13887;57.196;-2.100;2023-07-13T00:11:16;15.99;79.21
22069;DHT22;13887;57.196;-2.100;2023-07-13T00:13:50;16.00;79.15
22069;DHT22;13887;57.196;-2.100;2023-07-13T00:16:21;16.00;79.17
22069;DHT22;13887;57.196;-2.100;2023-07-13T00:18:53;16.00;79.15
22069;DHT22;13887;57.196;-2.100;2023-07-13T00:21:26;15.99;79.12
22069;DHT22;13887;57.196;-2.100;2023-07-13T00:24:14;15.98;79.09
22069;DHT22;13887;57.196;-2.100;2023-07-13T00:26:43;16.00;79.09
22069;DHT22;13887;57.196;-2.100;2023-07-13T00:29:16;15.98;79.11
22069;DHT22;13887;57.196;-2.100;2023-07-13T00:31:43;15.95;79.19
22069;DHT22;13887;57.196;-2.100;2023-07-13T00:34:14;15.96;79.26
22069;DHT22;13887;57.196;-2.100;2023-07-13T00:36:41;15.96;79.26
22069;DHT22;13887;57.196;-2.100;2023-07-13T00:39:11;15.99;79.27
22069;DHT22;13887;57.196;-2.100;2023-07-13T00:41:41;15.97;79.17
22069;DHT22;13887;57.196;-2.100;2023-07-13T00:44:14;15.95;79.14
22069;DHT22;13887;57.196;-2.100;2023-07-13T00:46:42;15.97;79.12
22069;DHT22;13887;57.196;-2.100;2023-07-13T00:49:16;15.96;79.11
22069;DHT22;13887;57.196;-2.100;2023-07-13T00:52:02;15.95;79.18
22069;DHT22;13887;57.196;-2.100;2023-07-13T00:54:38;15.96;79.11
22069;DHT22;13887;57.196;-2.100;2023-07-13T00:57:19;15.95;79.14
22069;DHT22;13887;57.196;-2.100;2023-07-13T00:59:50;15.95;79.03
22069;DHT22;13887;57.196;-2.100;2023-07-13T01:02:28;15.96;79.07
22069;DHT22;13887;57.196;-2.100;2023-07-13T01:04:59;15.95;79.13
22069;DHT22;13887;57.196;-2.100;2023-07-13T01:07:29;15.93;79.19
22069;DHT22;13887;57.196;-2.100;2023-07-13T01:09:59;15.95;79.11
22069;DHT22;13887;57.196;-2.100;2023-07-13T01:12:27;15.93;78.97
22069;DHT22;13887;57.196;-2.100;2023-07-13T01:14:58;15.95;79.01
22069;DHT22;13887;57.196;-2.100;2023-07-13T01:17:32;15.93;79.01
22069;DHT22;13887;57.196;-2.100;2023-07-13T01:20:00;15.90;78.98
22069;DHT22;13887;57.196;-2.100;2023-07-13T01:22:42;15.91;78.98
22069;DHT22;13887;57.196;-2.100;2023-07-13T01:25:10;15.89;78.93
22069;DHT22;13887;57.196;-2.100;2023-07-13T01:27:37;15.90;78.87
22069;DHT22;13887;57.196;-2.100;2023-07-13T01:30:09;15.90;78.97
22069;DHT22;13887;57.196;-2.100;2023-07-13T01:32:41;15.89;79.04
22069;DHT22;13887;57.196;-2.100;2023-07-13T01:35:21;15.87;78.90
22069;DHT22;13887;57.196;-2.100;2023-07-13T01:37:51;15.88;78.96
22069;DHT22;13887;57.196;-2.100;2023-07-13T01:40:21;15.86;78.93
22069;DHT22;13887;57.196;-2.100;2023-07-13T01:42:51;15.87;78.88
22069;DHT22;13887;57.196;-2.100;2023-07-13T01:45:20;15.87;78.85
22069;DHT22;13887;57.196;-2.100;2023-07-13T01:47:53;15.85;78.85
22069;DHT22;13887;57.196;-2.100;2023-07-13T01:50:20;15.84;78.82
22069;DHT22;13887;57.196;-2.100;2023-07-13T01:52:50;15.82;78.85
22069;DHT22;13887;57.196;-2.100;2023-07-13T01:55:22;15.81;78.95
22069;DHT22;13887;57.196;-2.100;2023-07-13T01:57:51;15.81;78.76
22069;DHT22;13887;57.196;-2.100;2023-07-13T02:00:19;15.81;78.72
22069;DHT22;13887;57.196;-2.100;2023-07-13T02:02:47;15.78;78.85
22069;DHT22;13887;57.196;-2.100;2023-07-13T02:05:21;15.77;78.79
22069;DHT22;13887;57.196;-2.100;2023-07-13T02:07:49;15.78;78.74
22069;DHT22;13887;57.196;-2.100;2023-07-13T02:10:16;15.80;78.73
22069;DHT22;13887;57.196;-2.100;2023-07-13T02:12:52;15.77;78.72
22069;DHT22;13887;57.196;-2.100;2023-07-13T02:15:20;15.76;78.72
22069;DHT22;13887;57.196;-2.100;2023-07-13T02:17:49;15.77;78.78
22069;DHT22;13887;57.196;-2.100;2023-07-13T02:20:25;15.76;78.73
22069;DHT22;13887;57.196;-2.100;2023-07-13T02:22:56;15.76;78.75
22069;DHT22;13887;57.196;-2.100;2023-07-13T02:25:24;15.75;78.72
22069;DHT22;13887;57.196;-2.100;2023-07-13T02:27:53;15.73;78.72
22069;DHT22;13887;57.196;-2.100;2023-07-13T02:30:24;15.74;78.78
22069;DHT22;13887;57.196;-2.100;2023-07-13T02:32:56;15.73;78.84
22069;DHT22;13887;57.196;-2.100;2023-07-13T02:35:24;15.73;78.96
22069;DHT22;13887;57.196;-2.100;2023-07-13T02:37:52;15.74;78.96
22069;DHT22;13887;57.196;-2.100;2023-07-13T02:40:23;15.75;78.93
22069;DHT22;13887;57.196;-2.100;2023-07-13T02:42:54;15.75;78.82
22069;DHT22;13887;57.196;-2.100;2023-07-13T02:45:24;15.74;78.83
22069;DHT22;13887;57.196;-2.100;2023-07-13T02:47:54;15.74;78.83
22069;DHT22;13887;57.196;-2.100;2023-07-13T02:50:29;15.76;78.81
22069;DHT22;13887;57.196;-2.100;2023-07-13T02:53:01;15.74;78.85
22069;DHT22;13887;57.196;-2.100;2023-07-13T02:55:31;15.73;78.82
22069;DHT22;13887;57.196;-2.100;2023-07-13T02:58:00;15.73;78.78
22069;DHT22;13887;57.196;-2.100;2023-07-13T03:00:30;15.72;78.82
22069;DHT22;13887;57.196;-2.100;2023-07-13T03:02:58;15.74;78.76
22069;DHT22;13887;57.196;-2.100;2023-07-13T03:05:28;15.71;78.80
22069;DHT22;13887;57.196;-2.100;2023-07-13T03:07:57;15.72;78.80
22069;DHT22;13887;57.196;-2.100;2023-07-13T03:10:28;15.69;78.82
22069;DHT22;13887;57.196;-2.100;2023-07-13T03:12:56;15.71;78.72
22069;DHT22;13887;57.196;-2.100;2023-07-13T03:15:30;15.71;78.74
22069;DHT22;13887;57.196;-2.100;2023-07-13T03:18:04;15.68;78.85
22069;DHT22;13887;57.196;-2.100;2023-07-13T03:20:33;15.68;78.88
22069;DHT22;13887;57.196;-2.100;2023-07-13T03:23:07;15.66;78.89
22069;DHT22;13887;57.196;-2.100;2023-07-13T03:25:35;15.67;78.90
22069;DHT22;13887;57.196;-2.100;2023-07-13T03:28:05;15.67;78.82
22069;DHT22;13887;57.196;-2.100;2023-07-13T03:30:37;15.68;78.79
22069;DHT22;13887;57.196;-2.100;2023-07-13T03:33:11;15.68;78.84
22069;DHT22;13887;57.196;-2.100;2023-07-13T03:35:42;15.67;78.92
22069;DHT22;13887;57.196;-2.100;2023-07-13T03:38:14;15.67;78.96
22069;DHT22;13887;57.196;-2.100;2023-07-13T03:40:55;15.69;78.85
22069;DHT22;13887;57.196;-2.100;2023-07-13T03:43:27;15.68;79.00
22069;DHT22;13887;57.196;-2.100;2023-07-13T03:46:03;15.68;78.88
22069;DHT22;13887;57.196;-2.100;2023-07-13T03:48:30;15.67;78.84
22069;DHT22;13887;57.196;-2.100;2023-07-13T03:51:06;15.69;78.66
22069;DHT22;13887;57.196;-2.100;2023-07-13T03:53:45;15.65;78.75
22069;DHT22;13887;57.196;-2.100;2023-07-13T03:56:15;15.63;78.80
22069;DHT22;13887;57.196;-2.100;2023-07-13T03:58:46;15.65;78.81
22069;DHT22;13887;57.196;-2.100;2023-07-13T04:01:21;15.66;78.79
22069;DHT22;13887;57.196;-2.100;2023-07-13T04:03:51;15.61;78.82
22069;DHT22;13887;57.196;-2.100;2023-07-13T04:06:31;15.62;78.85
22069;DHT22;13887;57.196;-2.100;2023-07-13T04:09:02;15.61;78.92
22069;DHT22;13887;57.196;-2.100;2023-07-13T04:11:34;15.61;78.97
22069;DHT22;13887;57.196;-2.100;2023-07-13T04:14:06;15.61;79.07
22069;DHT22;13887;57.196;-2.100;2023-07-13T04:16:39;15.61;79.17
22069;DHT22;13887;57.196;-2.100;2023-07-13T04:19:09;15.63;79.21
22069;DHT22;13887;57.196;-2.100;2023-07-13T04:21:41;15.62;79.22
22069;DHT22;13887;57.196;-2.100;2023-07-13T04:24:15;15.61;79.16
22069;DHT22;13887;57.196;-2.100;2023-07-13T04:26:46;15.61;79.33
22069;DHT22;13887;57.196;-2.100;2023-07-13T04:29:19;15.61;79.46
22069;DHT22;13887;57.196;-2.100;2023-07-13T04:31:58;15.59;79.56
22069;DHT22;13887;57.196;-2.100;2023-07-13T04:34:27;15.58;79.64
22069;DHT22;13887;57.196;-2.100;2023-07-13T04:36:58;15.60;79.59
22069;DHT22;13887;57.196;-2.100;2023-07-13T04:39:29;15.59;79.63
22069;DHT22;13887;57.196;-2.100;2023-07-13T04:41:56;15.59;79.64
22069;DHT22;13887;57.196;-2.100;2023-07-13T04:44:24;15.59;79.75
22069;DHT22;13887;57.196;-2.100;2023-07-13T04:46:56;15.58;79.77
22069;DHT22;13887;57.196;-2.100;2023-07-13T04:49:30;15.60;79.79
22069;DHT22;13887;57.196;-2.100;2023-07-13T04:52:01;15.60;79.60
22069;DHT22;13887;57.196;-2.100;2023-07-13T04:54:38;15.61;79.43
22069;DHT22;13887;57.196;-2.100;2023-07-13T04:57:06;15.59;79.54
22069;DHT22;13887;57.196;-2.100;2023-07-13T04:59:34;15.60;79.60
22069;DHT22;13887;57.196;-2.100;2023-07-13T05:02:04;15.61;79.69
22069;DHT22;13887;57.196;-2.100;2023-07-13T05:04:36;15.61;79.67
22069;DHT22;13887;57.196;-2.100;2023-07-13T05:07:05;15.61;79.72
22069;DHT22;13887;57.196;-2.100;2023-07-13T05:09:33;15.62;79.65
22069;DHT22;13887;57.196;-2.100;2023-07-13T05:12:10;15.62;79.74
22069;DHT22;13887;57.196;-2.100;2023-07-13T05:14:37;15.60;79.75
22069;DHT22;13887;57.196;-2.100;2023-07-13T05:17:11;15.62;79.60
22069;DHT22;13887;57.196;-2.100;2023-07-13T05:19:39;15.63;79.46
22069;DHT22;13887;57.196;-2.100;2023-07-13T05:22:12;15.62;79.37
22069;DHT22;13887;57.196;-2.100;2023-07-13T05:24:40;15.62;79.41
22069;DHT22;13887;57.196;-2.100;2023-07-13T05:27:14;15.62;79.55
22069;DHT22;13887;57.196;-2.100;2023-07-13T05:29:46;15.60;79.60
22069;DHT22;13887;57.196;-2.100;2023-07-13T05:32:15;15.61;79.62
22069;DHT22;13887;57.196;-2.100;2023-07-13T05:34:43;15.61;79.65
22069;DHT22;13887;57.196;-2.100;2023-07-13T05:37:10;15.63;79.57
22069;DHT22;13887;57.196;-2.100;2023-07-13T05:39:38;15.66;79.53
22069;DHT22;13887;57.196;-2.100;2023-07-13T05:42:18;15.67;79.34
22069;DHT22;13887;57.196;-2.100;2023-07-13T05:44:56;15.72;79.14
22069;DHT22;13887;57.196;-2.100;2023-07-13T05:47:30;15.76;79.11
22069;DHT22;13887;57.196;-2.100;2023-07-13T05:50:07;15.84;78.96
22069;DHT22;13887;57.196;-2.100;2023-07-13T05:52:40;15.86;78.92
22069;DHT22;13887;57.196;-2.100;2023-07-13T05:55:11;15.90;78.52
22069;DHT22;13887;57.196;-2.100;2023-07-13T05:57:41;15.83;78.48
22069;DHT22;13887;57.196;-2.100;2023-07-13T06:00:12;15.84;78.60
22069;DHT22;13887;57.196;-2.100;2023-07-13T06:02:42;15.86;78.58
22069;DHT22;13887;57.196;-2.100;2023-07-13T06:05:14;15.88;78.66
22069;DHT22;13887;57.196;-2.100;2023-07-13T06:07:44;15.91;78.43
22069;DHT22;13887;57.196;-2.100;2023-07-13T06:10:12;15.90;78.43
22069;DHT22;13887;57.196;-2.100;2023-07-13T06:12:43;15.89;78.57
22069;DHT22;13887;57.196;-2.100;2023-07-13T06:15:11;15.87;78.56
22069;DHT22;13887;57.196;-2.100;2023-07-13T06:17:42;15.85;78.32
22069;DHT22;13887;57.196;-2.100;2023-07-13T06:20:12;15.83;78.26
22069;DHT22;13887;57.196;-2.100;2023-07-13T06:22:40;15.80;78.10
22069;DHT22;13887;57.196;-2.100;2023-07-13T06:25:08;15.80;78.24
22069;DHT22;13887;57.196;-2.100;2023-07-13T06:27:39;15.77;78.27
22069;DHT22;13887;57.196;-2.100;2023-07-13T06:30:07;15.76;78.39
22069;DHT22;13887;57.196;-2.100;2023-07-13T06:32:36;15.75;78.35
22069;DHT22;13887;57.196;-2.100;2023-07-13T06:35:08;15.77;78.10
22069;DHT22;13887;57.196;-2.100;2023-07-13T06:37:44;15.78;78.01
22069;DHT22;13887;57.196;-2.100;2023-07-13T06:40:12;15.80;77.89
22069;DHT22;13887;57.196;-2.100;2023-07-13T06:42:43;15.78;77.85
22069;DHT22;13887;57.196;-2.100;2023-07-13T06:45:27;15.78;77.95
22069;DHT22;13887;57.196;-2.100;2023-07-13T06:47:55;15.78;77.87
22069;DHT22;13887;57.196;-2.100;2023-07-13T06:50:23;15.76;77.54
22069;DHT22;13887;57.196;-2.100;2023-07-13T06:52:50;15.76;77.51
22069;DHT22;13887;57.196;-2.100;2023-07-13T06:55:21;15.76;77.52
22069;DHT22;13887;57.196;-2.100;2023-07-13T06:57:54;15.76;77.95
22069;DHT22;13887;57.196;-2.100;2023-07-13T07:00:26;15.75;77.58
22069;DHT22;13887;57.196;-2.100;2023-07-13T07:02:59;15.75;77.53
22069;DHT22;13887;57.196;-2.100;2023-07-13T07:05:33;15.99;75.19
22069;DHT22;13887;57.196;-2.100;2023-07-13T07:08:04;15.87;74.51
22069;DHT22;13887;57.196;-2.100;2023-07-13T07:10:37;15.81;74.90
22069;DHT22;13887;57.196;-2.100;2023-07-13T07:13:22;15.81;75.32
22069;DHT22;13887;57.196;-2.100;2023-07-13T07:15:57;15.82;74.97
22069;DHT22;13887;57.196;-2.100;2023-07-13T07:18:35;15.85;75.18
22069;DHT22;13887;57.196;-2.100;2023-07-13T07:21:09;15.88;75.53
22069;DHT22;13887;57.196;-2.100;2023-07-13T07:23:46;15.92;75.57
22069;DHT22;13887;57.196;-2.100;2023-07-13T07:26:15;15.95;75.54
22069;DHT22;13887;57.196;-2.100;2023-07-13T07:28:50;15.96;75.61
22069;DHT22;13887;57.196;-2.100;2023-07-13T07:31:38;15.98;75.57
22069;DHT22;13887;57.196;-2.100;2023-07-13T07:34:11;16.00;75.69
22069;DHT22;13887;57.196;-2.100;2023-07-13T07:36:52;16.01;75.79
22069;DHT22;13887;57.196;-2.100;2023-07-13T07:39:28;16.03;75.70
22069;DHT22;13887;57.196;-2.100;2023-07-13T07:42:00;16.02;75.69
22069;DHT22;13887;57.196;-2.100;2023-07-13T07:44:27;16.05;75.55
22069;DHT22;13887;57.196;-2.100;2023-07-13T07:47:00;16.06;75.52
22069;DHT22;13887;57.196;-2.100;2023-07-13T07:49:40;16.07;75.76
22069;DHT22;13887;57.196;-2.100;2023-07-13T07:52:10;16.07;75.86
22069;DHT22;13887;57.196;-2.100;2023-07-13T07:54:46;16.05;74.77
22069;DHT22;13887;57.196;-2.100;2023-07-13T07:57:24;16.07;74.51
22069;DHT22;13887;57.196;-2.100;2023-07-13T07:59:57;16.06;74.93
22069;DHT22;13887;57.196;-2.100;2023-07-13T08:02:46;16.06;74.64
22069;DHT22;13887;57.196;-2.100;2023-07-13T08:05:34;16.04;75.08
22069;DHT22;13887;57.196;-2.100;2023-07-13T08:08:14;16.05;75.05
22069;DHT22;13887;57.196;-2.100;2023-07-13T08:10:45;16.04;74.73
22069;DHT22;13887;57.196;-2.100;2023-07-13T08:13:15;16.06;74.98
22069;DHT22;13887;57.196;-2.100;2023-07-13T08:15:46;16.06;74.92
22069;DHT22;13887;57.196;-2.100;2023-07-13T08:18:25;16.05;75.63
22069;DHT22;13887;57.196;-2.100;2023-07-13T08:20:58;16.06;75.25
22069;DHT22;13887;57.196;-2.100;2023-07-13T08:23:35;16.06;74.98
22069;DHT22;13887;57.196;-2.100;2023-07-13T08:26:09;16.07;75.07
22069;DHT22;13887;57.196;-2.100;2023-07-13T08:28:42;16.05;74.71
22069;DHT22;13887;57.196;-2.100;2023-07-13T08:31:16;16.05;74.75
22069;DHT22;13887;57.196;-2.100;2023-07-13T08:33:46;16.06;74.71
22069;DHT22;13887;57.196;-2.100;2023-07-13T08:36:18;16.12;74.64
22069;DHT22;13887;57.196;-2.100;2023-07-13T08:38:52;16.11;74.59
22069;DHT22;13887;57.196;-2.100;2023-07-13T08:41:25;16.12;74.93
22069;DHT22;13887;57.196;-2.100;2023-07-13T08:44:25;16.13;75.49
22069;DHT22;13887;57.196;-2.100;2023-07-13T08:46:56;16.11;75.87
22069;DHT22;13887;57.196;-2.100;2023-07-13T08:49:27;16.12;76.18
22069;DHT22;13887;57.196;-2.100;2023-07-13T08:52:16;16.14;76.21
22069;DHT22;13887;57.196;-2.100;2023-07-13T08:54:53;16.15;76.05
22069;DHT22;13887;57.196;-2.100;2023-07-13T08:57:31;16.17;76.19
22069;DHT22;13887;57.196;-2.100;2023-07-13T09:00:08;16.18;76.29
22069;DHT22;13887;57.196;-2.100;2023-07-13T09:03:02;16.20;76.24
22069;DHT22;13887;57.196;-2.100;2023-07-13T09:05:33;16.21;76.44
22069;DHT22;13887;57.196;-2.100;2023-07-13T09:17:35;16.25;76.92
22069;DHT22;13887;57.196;-2.100;2023-07-13T09:20:35;16.28;76.80
22069;DHT22;13887;57.196;-2.100;2023-07-13T09:23:10;16.28;76.75
22069;DHT22;13887;57.196;-2.100;2023-07-13T09:25:53;16.31;76.83
22069;DHT22;13887;57.196;-2.100;2023-07-13T09:28:37;16.28;76.89
22069;DHT22;13887;57.196;-2.100;2023-07-13T09:33:47;16.29;77.73
22069;DHT22;13887;57.196;-2.100;2023-07-13T09:36:31;16.28;77.65
22069;DHT22;13887;57.196;-2.100;2023-07-13T09:39:40;16.27;77.62
22069;DHT22;13887;57.196;-2.100;2023-07-13T09:42:38;16.29;77.86
22069;DHT22;13887;57.196;-2.100;2023-07-13T09:45:29;16.29;77.77
22069;DHT22;13887;57.196;-2.100;2023-07-13T09:48:11;16.28;77.85
22069;DHT22;13887;57.196;-2.100;2023-07-13T09:50:45;16.28;77.73
22069;DHT22;13887;57.196;-2.100;2023-07-13T09:53:27;16.29;77.66
22069;DHT22;13887;57.196;-2.100;2023-07-13T09:56:02;16.30;78.00
22069;DHT22;13887;57.196;-2.100;2023-07-13T09:58:45;16.29;78.09
22069;DHT22;13887;57.196;-2.100;2023-07-13T10:01:31;16.29;78.10
22069;DHT22;13887;57.196;-2.100;2023-07-13T10:04:17;16.27;78.87
22069;DHT22;13887;57.196;-2.100;2023-07-13T10:07:12;16.29;78.81
22069;DHT22;13887;57.196;-2.100;2023-07-13T10:10:00;16.28;79.35
22069;DHT22;13887;57.196;-2.100;2023-07-13T10:12:36;16.28;80.06
22069;DHT22;13887;57.196;-2.100;2023-07-13T10:15:21;16.25;81.10
22069;DHT22;13887;57.196;-2.100;2023-07-13T10:17:57;16.21;81.33
22069;DHT22;13887;57.196;-2.100;2023-07-13T10:20:38;16.24;81.54
22069;DHT22;13887;57.196;-2.100;2023-07-13T10:23:15;16.22;81.85
22069;DHT22;13887;57.196;-2.100;2023-07-13T10:26:20;16.25;81.84
22069;DHT22;13887;57.196;-2.100;2023-07-13T10:29:05;16.22;81.52
22069;DHT22;13887;57.196;-2.100;2023-07-13T10:31:41;16.25;82.12
22069;DHT22;13887;57.196;-2.100;2023-07-13T10:34:13;16.22;81.85
22069;DHT22;13887;57.196;-2.100;2023-07-13T10:36:52;16.24;82.13
22069;DHT22;13887;57.196;-2.100;2023-07-13T10:39:30;16.22;82.19
22069;DHT22;13887;57.196;-2.100;2023-07-13T10:42:13;16.21;81.93
22069;DHT22;13887;57.196;-2.100;2023-07-13T10:44:51;16.20;81.52
22069;DHT22;13887;57.196;-2.100;2023-07-13T10:47:35;16.21;81.54
22069;DHT22;13887;57.196;-2.100;2023-07-13T10:50:19;16.22;81.78
22069;DHT22;13887;57.196;-2.100;2023-07-13T10:53:02;16.24;81.88
22069;DHT22;13887;57.196;-2.100;2023-07-13T10:56:03;16.24;82.29
22069;DHT22;13887;57.196;-2.100;2023-07-13T10:58:45;16.24;82.73
22069;DHT22;13887;57.196;-2.100;2023-07-13T11:01:19;16.29;82.72
22069;DHT22;13887;57.196;-2.100;2023-07-13T11:03:56;16.29;83.08
22069;DHT22;13887;57.196;-2.100;2023-07-13T11:06:48;16.28;82.60
22069;DHT22;13887;57.196;-2.100;2023-07-13T11:09:56;16.28;82.58
22069;DHT22;13887;57.196;-2.100;2023-07-13T11:23:07;16.28;81.72
22069;DHT22;13887;57.196;-2.100;2023-07-13T11:25:45;16.29;81.97
22069;DHT22;13887;57.196;-2.100;2023-07-13T11:28:23;16.30;81.97
22069;DHT22;13887;57.196;-2.100;2023-07-13T11:36:16;16.32;81.75
22069;DHT22;13887;57.196;-2.100;2023-07-13T11:42:04;16.35;81.74
22069;DHT22;13887;57.196;-2.100;2023-07-13T11:44:49;16.37;81.74
22069;DHT22;13887;57.196;-2.100;2023-07-13T11:47:40;16.39;81.29
22069;DHT22;13887;57.196;-2.100;2023-07-13T11:50:25;16.39;81.06
22069;DHT22;13887;57.196;-2.100;2023-07-13T11:53:02;16.39;81.06
22069;DHT22;13887;57.196;-2.100;2023-07-13T11:55:31;16.40;80.96
22069;DHT22;13887;57.196;-2.100;2023-07-13T11:58:03;16.39;80.90
22069;DHT22;13887;57.196;-2.100;2023-07-13T12:00:34;16.41;80.77
22069;DHT22;13887;57.196;-2.100;2023-07-13T12:03:11;16.41;80.61
22069;DHT22;13887;57.196;-2.100;2023-07-13T12:06:04;16.43;80.49
22069;DHT22;13887;57.196;-2.100;2023-07-13T12:08:41;16.43;80.52
22069;DHT22;13887;57.196;-2.100;2023-07-13T12:11:17;16.41;80.58
22069;DHT22;13887;57.196;-2.100;2023-07-13T12:13:54;16.42;80.60
22069;DHT22;13887;57.196;-2.100;2023-07-13T12:16:37;16.43;80.63
22069;DHT22;13887;57.196;-2.100;2023-07-13T12:19:31;16.42;80.67
22069;DHT22;13887;57.196;-2.100;2023-07-13T12:22:02;16.41;80.46
22069;DHT22;13887;57.196;-2.100;2023-07-13T12:24:31;16.44;80.45
22069;DHT22;13887;57.196;-2.100;2023-07-13T12:27:22;16.44;80.39
22069;DHT22;13887;57.196;-2.100;2023-07-13T12:30:29;16.44;80.43
22069;DHT22;13887;57.196;-2.100;2023-07-13T12:33:13;16.44;80.32
22069;DHT22;13887;57.196;-2.100;2023-07-13T12:35:49;16.46;80.43
22069;DHT22;13887;57.196;-2.100;2023-07-13T12:38:27;16.46;80.46
22069;DHT22;13887;57.196;-2.100;2023-07-13T12:41:07;16.46;80.44
22069;DHT22;13887;57.196;-2.100;2023-07-13T12:43:40;16.47;80.69
22069;DHT22;13887;57.196;-2.100;2023-07-13T12:46:20;16.49;81.07
22069;DHT22;13887;57.196;-2.100;2023-07-13T12:49:13;16.48;80.92
22069;DHT22;13887;57.196;-2.100;2023-07-13T12:52:00;16.49;81.01
22069;DHT22;13887;57.196;-2.100;2023-07-13T12:54:29;16.48;81.00
22069;DHT22;13887;57.196;-2.100;2023-07-13T12:57:21;16.51;80.72
22069;DHT22;13887;57.196;-2.100;2023-07-13T12:59:53;16.54;80.59
22069;DHT22;13887;57.196;-2.100;2023-07-13T13:02:33;16.57;80.52
22069;DHT22;13887;57.196;-2.100;2023-07-13T13:05:04;16.57;80.27
22069;DHT22;13887;57.196;-2.100;2023-07-13T13:07:36;16.60;80.18
22069;DHT22;13887;57.196;-2.100;2023-07-13T13:10:16;16.61;80.12
22069;DHT22;13887;57.196;-2.100;2023-07-13T13:12:50;16.61;79.89
22069;DHT22;13887;57.196;-2.100;2023-07-13T13:15:22;16.64;79.81
22069;DHT22;13887;57.196;-2.100;2023-07-13T13:17:59;16.64;79.70
22069;DHT22;13887;57.196;-2.100;2023-07-13T13:20:35;16.67;79.69
22069;DHT22;13887;57.196;-2.100;2023-07-13T13:23:04;16.67;79.55
22069;DHT22;13887;57.196;-2.100;2023-07-13T13:25:34;16.69;79.49
22069;DHT22;13887;57.196;-2.100;2023-07-13T13:28:13;16.67;79.52
22069;DHT22;13887;57.196;-2.100;2023-07-13T13:30:51;16.70;79.41
22069;DHT22;13887;57.196;-2.100;2023-07-13T13:33:22;16.69;79.47
22069;DHT22;13887;57.196;-2.100;2023-07-13T13:35:53;16.70;79.44
22069;DHT22;13887;57.196;-2.100;2023-07-13T13:38:27;16.71;79.26
22069;DHT22;13887;57.196;-2.100;2023-07-13T13:41:03;16.73;78.60
22069;DHT22;13887;57.196;-2.100;2023-07-13T13:43:32;16.74;78.84
22069;DHT22;13887;57.196;-2.100;2023-07-13T13:46:24;16.75;78.65
22069;DHT22;13887;57.196;-2.100;2023-07-13T13:49:07;16.77;78.59
22069;DHT22;13887;57.196;-2.100;2023-07-13T13:51:48;16.79;78.55
22069;DHT22;13887;57.196;-2.100;2023-07-13T13:54:18;16.81;78.51
22069;DHT22;13887;57.196;-2.100;2023-07-13T13:56:58;16.81;78.37
22069;DHT22;13887;57.196;-2.100;2023-07-13T13:59:48;16.81;77.79
22069;DHT22;13887;57.196;-2.100;2023-07-13T14:02:27;16.82;78.03
22069;DHT22;13887;57.196;-2.100;2023-07-13T14:05:01;16.84;78.05
22069;DHT22;13887;57.196;-2.100;2023-07-13T14:07:40;16.84;77.90
22069;DHT22;13887;57.196;-2.100;2023-07-13T14:10:14;16.81;78.09
22069;DHT22;13887;57.196;-2.100;2023-07-13T14:12:53;16.85;77.95
22069;DHT22;13887;57.196;-2.100;2023-07-13T14:15:36;16.85;78.18
22069;DHT22;13887;57.196;-2.100;2023-07-13T14:18:21;16.86;78.07
22069;DHT22;13887;57.196;-2.100;2023-07-13T14:20:59;16.86;78.23
22069;DHT22;13887;57.196;-2.100;2023-07-13T14:23:32;16.85;78.40
22069;DHT22;13887;57.196;-2.100;2023-07-13T14:26:28;16.86;78.33
22069;DHT22;13887;57.196;-2.100;2023-07-13T14:29:04;16.85;78.34
22069;DHT22;13887;57.196;-2.100;2023-07-13T14:31:41;16.87;78.31
22069;DHT22;13887;57.196;-2.100;2023-07-13T14:34:18;16.88;78.19
22069;DHT22;13887;57.196;-2.100;2023-07-13T14:39:47;16.93;78.13
22069;DHT22;13887;57.196;-2.100;2023-07-13T14:42:20;16.93;77.97
22069;DHT22;13887;57.196;-2.100;2023-07-13T14:44:50;16.95;77.95
22069;DHT22;13887;57.196;-2.100;2023-07-13T14:47:29;17.00;77.92
22069;DHT22;13887;57.196;-2.100;2023-07-13T14:49:59;17.01;78.05
22069;DHT22;13887;57.196;-2.100;2023-07-13T14:52:31;17.02;78.07
22069;DHT22;13887;57.196;-2.100;2023-07-13T14:55:17;17.03;78.29
22069;DHT22;13887;57.196;-2.100;2023-07-13T14:57:54;17.02;78.37
22069;DHT22;13887;57.196;-2.100;2023-07-13T15:00:31;17.03;78.38
22069;DHT22;13887;57.196;-2.100;2023-07-13T15:02:59;17.01;78.53
22069;DHT22;13887;57.196;-2.100;2023-07-13T15:05:31;17.03;78.57
22069;DHT22;13887;57.196;-2.100;2023-07-13T15:08:15;17.02;78.66
22069;DHT22;13887;57.196;-2.100;2023-07-13T15:10:45;17.04;78.65
22069;DHT22;13887;57.196;-2.100;2023-07-13T15:13:21;17.05;78.68
22069;DHT22;13887;57.196;-2.100;2023-07-13T15:16:25;17.06;78.59
22069;DHT22;13887;57.196;-2.100;2023-07-13T15:18:53;17.07;78.66
22069;DHT22;13887;57.196;-2.100;2023-07-13T15:21:23;17.09;78.73
22069;DHT22;13887;57.196;-2.100;2023-07-13T15:23:52;17.07;78.83
22069;DHT22;13887;57.196;-2.100;2023-07-13T15:26:31;17.08;78.98
22069;DHT22;13887;57.196;-2.100;2023-07-13T15:29:13;17.05;78.97
22069;DHT22;13887;57.196;-2.100;2023-07-13T15:31:51;17.06;78.93
22069;DHT22;13887;57.196;-2.100;2023-07-13T15:34:31;17.06;78.89
22069;DHT22;13887;57.196;-2.100;2023-07-13T15:37:19;17.04;78.88
22069;DHT22;13887;57.196;-2.100;2023-07-13T15:39:53;17.05;78.82
22069;DHT22;13887;57.196;-2.100;2023-07-13T15:42:22;17.06;78.75
22069;DHT22;13887;57.196;-2.100;2023-07-13T15:44:53;17.06;78.74
22069;DHT22;13887;57.196;-2.100;2023-07-13T15:47:27;17.06;78.19
22069;DHT22;13887;57.196;-2.100;2023-07-13T15:50:00;17.06;78.56
22069;DHT22;13887;57.196;-2.100;2023-07-13T15:52:33;17.07;78.53
22069;DHT22;13887;57.196;-2.100;2023-07-13T15:55:14;17.07;78.53
22069;DHT22;13887;57.196;-2.100;2023-07-13T15:57:53;17.08;78.34
22069;DHT22;13887;57.196;-2.100;2023-07-13T16:00:29;17.08;78.38
22069;DHT22;13887;57.196;-2.100;2023-07-13T16:03:13;17.08;78.24
22069;DHT22;13887;57.196;-2.100;2023-07-13T16:05:45;17.07;78.25
22069;DHT22;13887;57.196;-2.100;2023-07-13T16:11:29;17.07;78.43
22069;DHT22;13887;57.196;-2.100;2023-07-13T16:14:08;17.09;79.24
22069;DHT22;13887;57.196;-2.100;2023-07-13T16:17:01;17.10;79.39
22069;DHT22;13887;57.196;-2.100;2023-07-13T16:19:37;17.10;79.24
22069;DHT22;13887;57.196;-2.100;2023-07-13T16:22:17;17.10;79.80
22069;DHT22;13887;57.196;-2.100;2023-07-13T16:25:15;17.10;79.42
22069;DHT22;13887;57.196;-2.100;2023-07-13T16:28:12;17.11;79.37
22069;DHT22;13887;57.196;-2.100;2023-07-13T16:30:49;17.14;79.80
22069;DHT22;13887;57.196;-2.100;2023-07-13T16:33:31;17.17;80.83
22069;DHT22;13887;57.196;-2.100;2023-07-13T16:36:21;17.13;81.67
22069;DHT22;13887;57.196;-2.100;2023-07-13T16:39:13;17.14;81.53
22069;DHT22;13887;57.196;-2.100;2023-07-13T16:41:46;17.15;81.81
22069;DHT22;13887;57.196;-2.100;2023-07-13T16:44:18;17.18;81.68